sensor_id;sensor_type;location;lat;lon;timestamp;pressure;altitude;pressure_sealevel;temperature;humidity
47330;BME280;33060;50.178;7.570;2023-03-02T00:02:12;97424.47;;;-0.44;63.61
47330;BME280;33060;50.178;7.570;2023-03-02T00:04:44;97427.91;;;-0.44;63.95
47330;BME280;33060;50.178;7.570;2023-03-02T00:07:16;97428.78;;;-0.43;63.56
47330;BME280;33060;50.178;7.570;2023-03-02T00:09:44;97423.56;;;-0.42;63.94
47330;BME280;33060;50.178;7.570;2023-03-02T00:12:12;97425.31;;;-0.44;64.01
47330;BME280;33060;50.178;7.570;2023-03-02T00:14:39;97433.03;;;-0.41;64.39
47330;BME280;33060;50.178;7.570;2023-03-02T00:17:05;97421.16;;;-0.52;64.69
47330;BME280;33060;50.178;7.570;2023-03-02T00:19:33;97419.53;;;-0.57;64.55
47330;BME280;33060;50.178;7.570;2023-03-02T00:22:00;97420.31;;;-0.51;64.88
47330;BME280;33060;50.178;7.570;2023-03-02T00:24:26;97429.88;;;-0.55;65.35
47330;BME280;33060;50.178;7.570;2023-03-02T00:26:53;97422.34;;;-0.67;65.70
47330;BME280;33060;50.178;7.570;2023-03-02T00:29:20;97421.41;;;-0.63;65.38
47330;BME280;33060;50.178;7.570;2023-03-02T00:31:46;97426.63;;;-0.65;65.41
47330;BME280;33060;50.178;7.570;2023-03-02T00:34:13;97431.72;;;-0.60;66.06
47330;BME280;33060;50.178;7.570;2023-03-02T00:36:40;97421.44;;;-0.65;65.25
47330;BME280;33060;50.178;7.570;2023-03-02T00:39:07;97428.28;;;-0.62;65.58
47330;BME280;33060;50.178;7.570;2023-03-02T00:41:34;97425.69;;;-0.62;65.98
47330;BME280;33060;50.178;7.570;2023-03-02T00:44:00;97434.72;;;-0.81;66.87
47330;BME280;33060;50.178;7.570;2023-03-02T00:46:27;97427.56;;;-0.69;65.85
47330;BME280;33060;50.178;7.570;2023-03-02T00:48:54;97424.22;;;-0.74;66.62
47330;BME280;33060;50.178;7.570;2023-03-02T00:51:21;97428.72;;;-0.83;66.18
47330;BME280;33060;50.178;7.570;2023-03-02T00:53:47;97426.09;;;-0.82;66.58
47330;BME280;33060;50.178;7.570;2023-03-02T00:56:14;97420.88;;;-0.80;67.20
47330;BME280;33060;50.178;7.570;2023-03-02T00:58:46;97428.84;;;-0.91;67.62
47330;BME280;33060;50.178;7.570;2023-03-02T01:01:12;97423.75;;;-0.96;67.40
47330;BME280;33060;50.178;7.570;2023-03-02T01:03:45;97416.16;;;-1.03;67.92
47330;BME280;33060;50.178;7.570;2023-03-02T01:06:19;97424.44;;;-0.86;67.81
47330;BME280;33060;50.178;7.570;2023-03-02T01:08:46;97428.72;;;-0.83;66.93
47330;BME280;33060;50.178;7.570;2023-03-02T01:11:16;97421.13;;;-0.93;66.95
47330;BME280;33060;50.178;7.570;2023-03-02T01:13:43;97419.28;;;-0.88;66.81
47330;BME280;33060;50.178;7.570;2023-03-02T01:16:10;97416.69;;;-0.88;66.77
47330;BME280;33060;50.178;7.570;2023-03-02T01:18:38;97407.88;;;-0.77;67.05
47330;BME280;33060;50.178;7.570;2023-03-02T01:21:11;97414.91;;;-0.84;66.95
47330;BME280;33060;50.178;7.570;2023-03-02T01:23:38;97411.50;;;-0.86;66.96
47330;BME280;33060;50.178;7.570;2023-03-02T01:26:05;97415.88;;;-0.90;67.48
47330;BME280;33060;50.178;7.570;2023-03-02T01:28:32;97402.72;;;-0.79;66.73
47330;BME280;33060;50.178;7.570;2023-03-02T01:30:59;97404.44;;;-0.78;67.30
47330;BME280;33060;50.178;7.570;2023-03-02T01:33:28;97402.97;;;-0.91;67.77
47330;BME280;33060;50.178;7.570;2023-03-02T01:35:55;97396.72;;;-0.81;66.96
47330;BME280;33060;50.178;7.570;2023-03-02T01:38:22;97397.63;;;-0.83;67.10
47330;BME280;33060;50.178;7.570;2023-03-02T01:40:49;97399.38;;;-0.84;66.71
47330;BME280;33060;50.178;7.570;2023-03-02T01:43:15;97389.78;;;-0.80;66.91
47330;BME280;33060;50.178;7.570;2023-03-02T01:45:52;97390.75;;;-0.84;66.67
47330;BME280;33060;50.178;7.570;2023-03-02T01:49:00;97394.22;;;-0.87;67.12
47330;BME280;33060;50.178;7.570;2023-03-02T01:51:41;97389.75;;;-0.79;66.46
47330;BME280;33060;50.178;7.570;2023-03-02T01:54:11;97386.31;;;-0.79;66.69
47330;BME280;33060;50.178;7.570;2023-03-02T01:56:58;97389.94;;;-0.87;67.17
47330;BME280;33060;50.178;7.570;2023-03-02T01:59:28;97386.56;;;-0.92;67.50
47330;BME280;33060;50.178;7.570;2023-03-02T02:01:58;97384.75;;;-0.88;66.79
47330;BME280;33060;50.178;7.570;2023-03-02T02:04:29;97377.88;;;-0.89;67.37
47330;BME280;33060;50.178;7.570;2023-03-02T02:07:02;97367.50;;;-0.88;66.87
47330;BME280;33060;50.178;7.570;2023-03-02T02:09:31;97371.00;;;-0.90;67.22
47330;BME280;33060;50.178;7.570;2023-03-02T02:11:59;97378.84;;;-0.93;67.22
47330;BME280;33060;50.178;7.570;2023-03-02T02:14:26;97374.44;;;-0.90;67.38
47330;BME280;33060;50.178;7.570;2023-03-02T02:16:53;97373.59;;;-0.90;67.05
47330;BME280;33060;50.178;7.570;2023-03-02T02:22:08;97369.22;;;-0.87;66.72
47330;BME280;33060;50.178;7.570;2023-03-02T02:24:41;97375.41;;;-0.94;67.10
47330;BME280;33060;50.178;7.570;2023-03-02T02:27:10;97371.09;;;-0.95;66.81
47330;BME280;33060;50.178;7.570;2023-03-02T02:29:44;97367.75;;;-1.00;67.68
47330;BME280;33060;50.178;7.570;2023-03-02T02:32:19;97366.97;;;-1.03;68.19
47330;BME280;33060;50.178;7.570;2023-03-02T02:34:55;97368.75;;;-1.07;68.11
47330;BME280;33060;50.178;7.570;2023-03-02T02:37:32;97361.03;;;-1.10;68.04
47330;BME280;33060;50.178;7.570;2023-03-02T02:40:01;97361.97;;;-1.12;68.34
47330;BME280;33060;50.178;7.570;2023-03-02T02:42:36;97376.91;;;-1.28;68.64
47330;BME280;33060;50.178;7.570;2023-03-02T02:45:13;97366.25;;;-1.11;68.53
47330;BME280;33060;50.178;7.570;2023-03-02T02:47:43;97358.13;;;-1.38;69.65
47330;BME280;33060;50.178;7.570;2023-03-02T02:50:17;97354.84;;;-1.48;69.93
47330;BME280;33060;50.178;7.570;2023-03-02T02:52:48;97352.22;;;-1.46;69.51
47330;BME280;33060;50.178;7.570;2023-03-02T02:55:20;97363.47;;;-1.49;69.30
47330;BME280;33060;50.178;7.570;2023-03-02T02:57:52;97361.59;;;-1.40;69.97
47330;BME280;33060;50.178;7.570;2023-03-02T03:00:22;97358.91;;;-1.34;69.31
47330;BME280;33060;50.178;7.570;2023-03-02T03:02:57;97358.94;;;-1.36;69.36
47330;BME280;33060;50.178;7.570;2023-03-02T03:05:24;97354.78;;;-1.45;69.47
47330;BME280;33060;50.178;7.570;2023-03-02T03:07:50;97351.38;;;-1.47;69.83
47330;BME280;33060;50.178;7.570;2023-03-02T03:12:48;97354.13;;;-1.56;70.24
47330;BME280;33060;50.178;7.570;2023-03-02T03:15:18;97350.97;;;-1.73;71.76
47330;BME280;33060;50.178;7.570;2023-03-02T03:17:57;97355.69;;;-1.98;71.14
47330;BME280;33060;50.178;7.570;2023-03-02T03:20:27;97350.81;;;-2.19;72.40
47330;BME280;33060;50.178;7.570;2023-03-02T03:22:54;97353.38;;;-2.18;73.43
47330;BME280;33060;50.178;7.570;2023-03-02T03:25:24;97341.88;;;-1.97;72.01
47330;BME280;33060;50.178;7.570;2023-03-02T03:27:53;97346.16;;;-1.96;71.72
47330;BME280;33060;50.178;7.570;2023-03-02T03:30:20;97343.78;;;-2.08;72.28
47330;BME280;33060;50.178;7.570;2023-03-02T03:32:48;97333.56;;;-2.16;72.56
47330;BME280;33060;50.178;7.570;2023-03-02T03:35:15;97335.44;;;-2.25;73.36
47330;BME280;33060;50.178;7.570;2023-03-02T03:37:42;97341.44;;;-2.23;72.89
47330;BME280;33060;50.178;7.570;2023-03-02T03:40:10;97341.91;;;-1.98;72.52
47330;BME280;33060;50.178;7.570;2023-03-02T03:42:40;97340.91;;;-1.91;72.58
47330;BME280;33060;50.178;7.570;2023-03-02T03:45:07;97343.28;;;-1.78;72.11
47330;BME280;33060;50.178;7.570;2023-03-02T03:47:35;97345.06;;;-1.81;72.51
47330;BME280;33060;50.178;7.570;2023-03-02T03:50:04;97336.38;;;-1.77;71.00
47330;BME280;33060;50.178;7.570;2023-03-02T03:52:31;97342.09;;;-1.60;70.58
47330;BME280;33060;50.178;7.570;2023-03-02T03:55:06;97329.72;;;-1.43;69.32
47330;BME280;33060;50.178;7.570;2023-03-02T03:57:33;97322.63;;;-1.31;68.57
47330;BME280;33060;50.178;7.570;2023-03-02T04:00:00;97319.88;;;-1.24;68.82
47330;BME280;33060;50.178;7.570;2023-03-02T04:02:27;97317.22;;;-1.19;68.12
47330;BME280;33060;50.178;7.570;2023-03-02T04:04:53;97316.41;;;-1.23;68.51
47330;BME280;33060;50.178;7.570;2023-03-02T04:07:20;97322.44;;;-1.21;68.34
47330;BME280;33060;50.178;7.570;2023-03-02T04:09:47;97318.06;;;-1.19;68.37
47330;BME280;33060;50.178;7.570;2023-03-02T04:12:14;97314.66;;;-1.22;68.36
47330;BME280;33060;50.178;7.570;2023-03-02T04:14:50;97320.69;;;-1.22;67.64
47330;BME280;33060;50.178;7.570;2023-03-02T04:17:26;97323.22;;;-1.17;67.77
47330;BME280;33060;50.178;7.570;2023-03-02T04:19:53;97327.63;;;-1.22;68.00
47330;BME280;33060;50.178;7.570;2023-03-02T04:22:20;97324.34;;;-1.32;68.57
47330;BME280;33060;50.178;7.570;2023-03-02T04:24:48;97317.41;;;-1.28;67.79
47330;BME280;33060;50.178;7.570;2023-03-02T04:27:16;97327.69;;;-1.25;67.82
47330;BME280;33060;50.178;7.570;2023-03-02T04:29:43;97331.88;;;-1.18;67.61
47330;BME280;33060;50.178;7.570;2023-03-02T04:32:11;97334.38;;;-1.15;67.18
47330;BME280;33060;50.178;7.570;2023-03-02T04:34:41;97331.94;;;-1.21;68.09
47330;BME280;33060;50.178;7.570;2023-03-02T04:37:09;97339.53;;;-1.14;67.22
47330;BME280;33060;50.178;7.570;2023-03-02T04:39:35;97336.13;;;-1.16;67.37
47330;BME280;33060;50.178;7.570;2023-03-02T04:42:02;97338.66;;;-1.14;67.38
47330;BME280;33060;50.178;7.570;2023-03-02T04:44:29;97333.47;;;-1.11;66.88
47330;BME280;33060;50.178;7.570;2023-03-02T04:46:55;97342.19;;;-1.17;66.80
47330;BME280;33060;50.178;7.570;2023-03-02T04:49:22;97337.03;;;-1.18;67.37
47330;BME280;33060;50.178;7.570;2023-03-02T04:51:49;97337.09;;;-1.21;67.09
47330;BME280;33060;50.178;7.570;2023-03-02T04:54:22;97334.34;;;-1.14;66.65
47330;BME280;33060;50.178;7.570;2023-03-02T04:56:49;97342.16;;;-1.15;67.50
47330;BME280;33060;50.178;7.570;2023-03-02T04:59:19;97330.09;;;-1.16;67.17
47330;BME280;33060;50.178;7.570;2023-03-02T05:01:47;97337.81;;;-1.15;66.70
47330;BME280;33060;50.178;7.570;2023-03-02T05:04:15;97337.75;;;-1.10;66.88
47330;BME280;33060;50.178;7.570;2023-03-02T05:06:41;97325.69;;;-1.11;66.58
47330;BME280;33060;50.178;7.570;2023-03-02T05:09:08;97329.19;;;-1.15;67.16
47330;BME280;33060;50.178;7.570;2023-03-02T05:11:35;97330.19;;;-1.21;66.78
47330;BME280;33060;50.178;7.570;2023-03-02T05:14:05;97329.34;;;-1.21;67.28
47330;BME280;33060;50.178;7.570;2023-03-02T05:16:33;97331.94;;;-1.23;66.95
47330;BME280;33060;50.178;7.570;2023-03-02T05:19:03;97329.28;;;-1.18;66.57
47330;BME280;33060;50.178;7.570;2023-03-02T05:21:30;97331.13;;;-1.25;67.06
47330;BME280;33060;50.178;7.570;2023-03-02T05:23:57;97329.53;;;-1.30;67.09
47330;BME280;33060;50.178;7.570;2023-03-02T05:26:23;97331.06;;;-1.22;67.28
47330;BME280;33060;50.178;7.570;2023-03-02T05:28:50;97330.19;;;-1.22;66.92
47330;BME280;33060;50.178;7.570;2023-03-02T05:31:37;97326.78;;;-1.24;67.19
47330;BME280;33060;50.178;7.570;2023-03-02T05:34:07;97344.09;;;-1.26;66.97
47330;BME280;33060;50.178;7.570;2023-03-02T05:36:34;97336.22;;;-1.20;67.31
47330;BME280;33060;50.178;7.570;2023-03-02T05:39:03;97331.94;;;-1.21;67.05
47330;BME280;33060;50.178;7.570;2023-03-02T05:41:30;97327.66;;;-1.24;66.76
47330;BME280;33060;50.178;7.570;2023-03-02T05:43:57;97327.94;;;-1.37;67.91
47330;BME280;33060;50.178;7.570;2023-03-02T05:46:24;97334.78;;;-1.35;67.75
47330;BME280;33060;50.178;7.570;2023-03-02T05:48:51;97336.50;;;-1.35;67.45
47330;BME280;33060;50.178;7.570;2023-03-02T05:51:18;97325.22;;;-1.33;67.77
47330;BME280;33060;50.178;7.570;2023-03-02T05:53:45;97339.94;;;-1.35;68.05
47330;BME280;33060;50.178;7.570;2023-03-02T05:56:12;97337.38;;;-1.36;67.89
47330;BME280;33060;50.178;7.570;2023-03-02T05:58:38;97342.38;;;-1.27;67.28
47330;BME280;33060;50.178;7.570;2023-03-02T06:01:09;97348.34;;;-1.24;66.76
47330;BME280;33060;50.178;7.570;2023-03-02T06:03:40;97343.13;;;-1.22;67.28
47330;BME280;33060;50.178;7.570;2023-03-02T06:06:06;97342.38;;;-1.27;67.11
47330;BME280;33060;50.178;7.570;2023-03-02T06:08:33;97345.66;;;-1.18;66.89
47330;BME280;33060;50.178;7.570;2023-03-02T06:11:00;97344.81;;;-1.18;67.46
47330;BME280;33060;50.178;7.570;2023-03-02T06:13:26;97353.56;;;-1.25;66.86
47330;BME280;33060;50.178;7.570;2023-03-02T06:15:53;97346.44;;;-1.14;66.72
47330;BME280;33060;50.178;7.570;2023-03-02T06:18:19;97349.94;;;-1.17;66.16
47330;BME280;33060;50.178;7.570;2023-03-02T06:20:48;97348.06;;;-1.08;66.21
47330;BME280;33060;50.178;7.570;2023-03-02T06:23:15;97353.13;;;-1.02;65.78
47330;BME280;33060;50.178;7.570;2023-03-02T06:25:42;97350.53;;;-1.02;66.01
47330;BME280;33060;50.178;7.570;2023-03-02T06:28:15;97356.44;;;-0.96;65.43
47330;BME280;33060;50.178;7.570;2023-03-02T06:30:41;97358.16;;;-0.95;65.59
47330;BME280;33060;50.178;7.570;2023-03-02T06:33:08;97353.84;;;-0.96;65.29
47330;BME280;33060;50.178;7.570;2023-03-02T06:35:35;97347.75;;;-0.92;65.19
47330;BME280;33060;50.178;7.570;2023-03-02T06:38:02;97351.28;;;-0.97;65.04
47330;BME280;33060;50.178;7.570;2023-03-02T06:40:28;97351.94;;;-0.88;64.90
47330;BME280;33060;50.178;7.570;2023-03-02T06:42:55;97357.97;;;-0.86;64.91
47330;BME280;33060;50.178;7.570;2023-03-02T06:45:22;97346.72;;;-0.84;65.25
47330;BME280;33060;50.178;7.570;2023-03-02T06:47:49;97351.91;;;-0.84;64.80
47330;BME280;33060;50.178;7.570;2023-03-02T06:50:15;97345.66;;;-0.74;64.71
47330;BME280;33060;50.178;7.570;2023-03-02T06:52:42;97347.31;;;-0.72;64.23
47330;BME280;33060;50.178;7.570;2023-03-02T06:55:09;97345.53;;;-0.68;64.16
47330;BME280;33060;50.178;7.570;2023-03-02T06:57:35;97340.19;;;-0.61;63.92
47330;BME280;33060;50.178;7.570;2023-03-02T07:00:08;97338.25;;;-0.52;64.02
47330;BME280;33060;50.178;7.570;2023-03-02T07:02:36;97344.13;;;-0.43;63.42
47330;BME280;33060;50.178;7.570;2023-03-02T07:05:04;97350.84;;;-0.36;63.24
47330;BME280;33060;50.178;7.570;2023-03-02T07:07:31;97339.56;;;-0.32;63.12
47330;BME280;33060;50.178;7.570;2023-03-02T07:09:58;97354.13;;;-0.26;62.93
47330;BME280;33060;50.178;7.570;2023-03-02T07:12:25;97341.13;;;-0.24;62.60
47330;BME280;33060;50.178;7.570;2023-03-02T07:14:51;97346.16;;;-0.18;62.28
47330;BME280;33060;50.178;7.570;2023-03-02T07:17:19;97340.66;;;-0.05;61.86
47330;BME280;33060;50.178;7.570;2023-03-02T07:19:49;97341.41;;;0.01;62.01
47330;BME280;33060;50.178;7.570;2023-03-02T07:22:16;97341.19;;;0.08;61.75
47330;BME280;33060;50.178;7.570;2023-03-02T07:24:42;97336.63;;;0.19;60.51
47330;BME280;33060;50.178;7.570;2023-03-02T07:27:10;97333.63;;;0.35;60.50
47330;BME280;33060;50.178;7.570;2023-03-02T07:29:37;97326.69;;;0.37;59.83
47330;BME280;33060;50.178;7.570;2023-03-02T07:32:04;97328.28;;;0.41;59.80
47330;BME280;33060;50.178;7.570;2023-03-02T07:34:32;97323.56;;;0.56;59.80
47330;BME280;33060;50.178;7.570;2023-03-02T07:36:58;97324.19;;;0.66;60.18
47330;BME280;33060;50.178;7.570;2023-03-02T07:39:25;97321.59;;;0.66;59.69
47330;BME280;33060;50.178;7.570;2023-03-02T07:41:52;97321.44;;;0.72;59.90
47330;BME280;33060;50.178;7.570;2023-03-02T07:44:20;97328.72;;;0.91;59.78
47330;BME280;33060;50.178;7.570;2023-03-02T07:46:46;97333.50;;;1.06;58.91
47330;BME280;33060;50.178;7.570;2023-03-02T07:49:13;97333.09;;;1.20;59.83
47330;BME280;33060;50.178;7.570;2023-03-02T07:51:40;97337.63;;;1.13;58.49
47330;BME280;33060;50.178;7.570;2023-03-02T07:54:07;97338.13;;;1.26;59.13
47330;BME280;33060;50.178;7.570;2023-03-02T07:56:34;97342.28;;;1.31;58.13
47330;BME280;33060;50.178;7.570;2023-03-02T07:59:00;97342.69;;;1.47;58.19
47330;BME280;33060;50.178;7.570;2023-03-02T08:01:27;97342.97;;;1.67;57.61
47330;BME280;33060;50.178;7.570;2023-03-02T08:03:54;97345.47;;;1.70;57.46
47330;BME280;33060;50.178;7.570;2023-03-02T08:06:20;97347.72;;;1.81;57.91
47330;BME280;33060;50.178;7.570;2023-03-02T08:08:47;97345.56;;;1.95;56.74
47330;BME280;33060;50.178;7.570;2023-03-02T08:11:16;97354.44;;;1.88;56.40
47330;BME280;33060;50.178;7.570;2023-03-02T08:13:43;97348.66;;;2.07;56.80
47330;BME280;33060;50.178;7.570;2023-03-02T08:16:12;97346.97;;;2.06;56.06
47330;BME280;33060;50.178;7.570;2023-03-02T08:18:39;97343.16;;;2.16;56.23
47330;BME280;33060;50.178;7.570;2023-03-02T08:21:11;97344.69;;;2.23;55.88
47330;BME280;33060;50.178;7.570;2023-03-02T08:23:37;97345.16;;;2.34;55.71
47330;BME280;33060;50.178;7.570;2023-03-02T08:26:04;97347.81;;;2.59;54.96
47330;BME280;33060;50.178;7.570;2023-03-02T08:28:31;97342.97;;;2.48;55.41
47330;BME280;33060;50.178;7.570;2023-03-02T08:31:01;97342.25;;;2.70;54.93
47330;BME280;33060;50.178;7.570;2023-03-02T08:33:28;97336.03;;;2.74;54.64
47330;BME280;33060;50.178;7.570;2023-03-02T08:36:00;97340.22;;;2.78;54.17
47330;BME280;33060;50.178;7.570;2023-03-02T08:38:28;97340.97;;;2.81;54.35
47330;BME280;33060;50.178;7.570;2023-03-02T08:40:54;97337.00;;;2.96;54.51
47330;BME280;33060;50.178;7.570;2023-03-02T08:43:23;97333.09;;;3.08;53.46
47330;BME280;33060;50.178;7.570;2023-03-02T08:45:54;97328.53;;;3.15;53.35
47330;BME280;33060;50.178;7.570;2023-03-02T08:48:24;97326.16;;;3.32;54.41
47330;BME280;33060;50.178;7.570;2023-03-02T08:51:00;97326.16;;;3.32;53.28
47330;BME280;33060;50.178;7.570;2023-03-02T08:53:28;97321.09;;;3.27;53.26
47330;BME280;33060;50.178;7.570;2023-03-02T08:55:56;97326.66;;;3.42;53.24
47330;BME280;33060;50.178;7.570;2023-03-02T08:58:23;97315.88;;;3.27;53.24
47330;BME280;33060;50.178;7.570;2023-03-02T09:00:50;97317.91;;;3.19;53.63
47330;BME280;33060;50.178;7.570;2023-03-02T09:03:16;97325.81;;;3.41;53.15
47330;BME280;33060;50.178;7.570;2023-03-02T09:05:43;97313.63;;;3.63;53.00
47330;BME280;33060;50.178;7.570;2023-03-02T09:08:10;97320.34;;;3.71;52.54
47330;BME280;33060;50.178;7.570;2023-03-02T09:10:37;97315.00;;;3.95;52.79
47330;BME280;33060;50.178;7.570;2023-03-02T09:13:05;97311.63;;;3.93;52.77
47330;BME280;33060;50.178;7.570;2023-03-02T09:15:34;97316.81;;;4.15;52.23
47330;BME280;33060;50.178;7.570;2023-03-02T09:18:00;97313.56;;;4.10;51.62
47330;BME280;33060;50.178;7.570;2023-03-02T09:20:27;97318.94;;;4.06;52.16
47330;BME280;33060;50.178;7.570;2023-03-02T09:22:54;97315.97;;;4.15;52.65
47330;BME280;33060;50.178;7.570;2023-03-02T09:25:20;97314.09;;;4.18;52.91
47330;BME280;33060;50.178;7.570;2023-03-02T09:27:47;97308.50;;;4.28;52.46
47330;BME280;33060;50.178;7.570;2023-03-02T09:30:14;97310.97;;;4.31;52.57
47330;BME280;33060;50.178;7.570;2023-03-02T09:32:41;97309.50;;;4.45;51.84
47330;BME280;33060;50.178;7.570;2023-03-02T09:35:08;97314.81;;;4.44;51.78
47330;BME280;33060;50.178;7.570;2023-03-02T09:37:35;97306.03;;;4.45;51.15
47330;BME280;33060;50.178;7.570;2023-03-02T09:40:11;97320.34;;;4.57;51.23
47330;BME280;33060;50.178;7.570;2023-03-02T09:46:02;97309.03;;;4.76;52.25
47330;BME280;33060;50.178;7.570;2023-03-02T09:48:58;97319.63;;;4.94;50.52
47330;BME280;33060;50.178;7.570;2023-03-02T09:51:32;97328.66;;;4.87;51.12
47330;BME280;33060;50.178;7.570;2023-03-02T09:54:08;97318.34;;;5.04;50.87
47330;BME280;33060;50.178;7.570;2023-03-02T09:56:40;97317.25;;;5.08;49.79
47330;BME280;33060;50.178;7.570;2023-03-02T10:04:53;97315.50;;;5.48;50.33
47330;BME280;33060;50.178;7.570;2023-03-02T10:07:25;97317.59;;;5.39;49.47
47330;BME280;33060;50.178;7.570;2023-03-02T10:09:53;97321.00;;;5.42;50.46
47330;BME280;33060;50.178;7.570;2023-03-02T10:12:36;97313.44;;;5.54;50.17
47330;BME280;33060;50.178;7.570;2023-03-02T10:15:16;97319.22;;;5.61;49.85
47330;BME280;33060;50.178;7.570;2023-03-02T10:20:37;97314.72;;;5.83;49.96
47330;BME280;33060;50.178;7.570;2023-03-02T10:25:47;97327.38;;;5.74;50.52
47330;BME280;33060;50.178;7.570;2023-03-02T10:28:21;97320.81;;;5.65;49.86
47330;BME280;33060;50.178;7.570;2023-03-02T10:31:07;97320.41;;;5.73;50.35
47330;BME280;33060;50.178;7.570;2023-03-02T10:33:36;97324.13;;;5.68;50.70
47330;BME280;33060;50.178;7.570;2023-03-02T10:36:16;97320.06;;;5.61;50.21
47330;BME280;33060;50.178;7.570;2023-03-02T10:38:46;97322.84;;;5.58;50.34
47330;BME280;33060;50.178;7.570;2023-03-02T10:41:21;97322.84;;;5.58;50.31
47330;BME280;33060;50.178;7.570;2023-03-02T10:43:51;97312.38;;;5.77;51.20
47330;BME280;33060;50.178;7.570;2023-03-02T10:46:19;97304.81;;;6.09;49.89
47330;BME280;33060;50.178;7.570;2023-03-02T10:48:49;97307.91;;;6.17;50.50
47330;BME280;33060;50.178;7.570;2023-03-02T10:51:28;97298.72;;;6.08;50.95
47330;BME280;33060;50.178;7.570;2023-03-02T10:54:21;97286.91;;;6.53;52.08
47330;BME280;33060;50.178;7.570;2023-03-02T10:56:51;97286.94;;;6.69;49.57
47330;BME280;33060;50.178;7.570;2023-03-02T11:04:39;97284.66;;;6.45;51.08
47330;BME280;33060;50.178;7.570;2023-03-02T11:07:12;97280.19;;;6.47;50.93
47330;BME280;33060;50.178;7.570;2023-03-02T11:09:40;97277.75;;;6.77;49.92
47330;BME280;33060;50.178;7.570;2023-03-02T11:12:14;97286.66;;;6.75;50.36
47330;BME280;33060;50.178;7.570;2023-03-02T11:14:41;97278.38;;;6.83;49.79
47330;BME280;33060;50.178;7.570;2023-03-02T11:17:29;97279.09;;;6.69;50.55
47330;BME280;33060;50.178;7.570;2023-03-02T11:19:56;97278.31;;;6.67;49.79
47330;BME280;33060;50.178;7.570;2023-03-02T11:23:21;97268.75;;;6.83;49.92
47330;BME280;33060;50.178;7.570;2023-03-02T11:25:38;97265.50;;;6.95;50.54
47330;BME280;33060;50.178;7.570;2023-03-02T11:28:24;97265.75;;;6.73;49.77
47330;BME280;33060;50.178;7.570;2023-03-02T11:30:56;97272.16;;;6.68;50.07
47330;BME280;33060;50.178;7.570;2023-03-02T11:34:20;97266.56;;;6.91;49.60
47330;BME280;33060;50.178;7.570;2023-03-02T11:36:58;97271.19;;;6.86;50.05
47330;BME280;33060;50.178;7.570;2023-03-02T11:42:24;97262.06;;;7.11;49.95
47330;BME280;33060;50.178;7.570;2023-03-02T11:44:53;97262.53;;;7.01;49.58
47330;BME280;33060;50.178;7.570;2023-03-02T11:47:21;97264.44;;;7.15;50.06
47330;BME280;33060;50.178;7.570;2023-03-02T11:49:55;97263.44;;;7.18;49.83
47330;BME280;33060;50.178;7.570;2023-03-02T11:52:26;97267.25;;;7.28;49.50
47330;BME280;33060;50.178;7.570;2023-03-02T11:54:58;97264.19;;;7.20;50.24
47330;BME280;33060;50.178;7.570;2023-03-02T11:57:32;97262.97;;;7.43;49.85
47330;BME280;33060;50.178;7.570;2023-03-02T12:00:01;97266.22;;;7.48;50.01
47330;BME280;33060;50.178;7.570;2023-03-02T12:02:37;97255.84;;;7.45;49.18
47330;BME280;33060;50.178;7.570;2023-03-02T12:05:19;97247.97;;;7.29;49.29
47330;BME280;33060;50.178;7.570;2023-03-02T12:07:58;97258.34;;;7.48;49.05
47330;BME280;33060;50.178;7.570;2023-03-02T12:13:16;97258.50;;;7.60;49.79
47330;BME280;33060;50.178;7.570;2023-03-02T12:15:45;97249.19;;;7.39;49.19
47330;BME280;33060;50.178;7.570;2023-03-02T12:23:40;97243.81;;;7.88;48.49
47330;BME280;33060;50.178;7.570;2023-03-02T12:31:46;97233.50;;;8.01;48.30
47330;BME280;33060;50.178;7.570;2023-03-02T12:37:02;97228.16;;;8.02;48.23
47330;BME280;33060;50.178;7.570;2023-03-02T12:39:35;97237.13;;;7.98;48.17
47330;BME280;33060;50.178;7.570;2023-03-02T12:47:45;97220.41;;;7.99;48.81
47330;BME280;33060;50.178;7.570;2023-03-02T12:50:18;97206.31;;;8.16;49.04
47330;BME280;33060;50.178;7.570;2023-03-02T12:53:01;97212.81;;;8.25;48.52
47330;BME280;33060;50.178;7.570;2023-03-02T12:55:29;97213.19;;;8.48;48.80
47330;BME280;33060;50.178;7.570;2023-03-02T12:57:58;97197.31;;;8.36;47.43
47330;BME280;33060;50.178;7.570;2023-03-02T13:00:29;97200.28;;;8.30;48.02
47330;BME280;33060;50.178;7.570;2023-03-02T13:02:57;97193.03;;;8.19;47.61
47330;BME280;33060;50.178;7.570;2023-03-02T13:05:28;97197.25;;;8.21;47.65
47330;BME280;33060;50.178;7.570;2023-03-02T13:07:59;97186.81;;;8.50;48.38
47330;BME280;33060;50.178;7.570;2023-03-02T13:10:31;97196.38;;;8.37;47.42
47330;BME280;33060;50.178;7.570;2023-03-02T13:13:13;97187.09;;;8.45;47.36
47330;BME280;33060;50.178;7.570;2023-03-02T13:18:19;97182.69;;;8.46;47.08
47330;BME280;33060;50.178;7.570;2023-03-02T13:20:47;97179.56;;;8.39;47.44
47330;BME280;33060;50.178;7.570;2023-03-02T13:23:15;97175.66;;;8.46;47.20
47330;BME280;33060;50.178;7.570;2023-03-02T13:25:54;97178.19;;;8.48;46.51
47330;BME280;33060;50.178;7.570;2023-03-02T13:28:24;97175.38;;;8.51;47.37
47330;BME280;33060;50.178;7.570;2023-03-02T13:31:20;97163.75;;;8.55;47.19
47330;BME280;33060;50.178;7.570;2023-03-02T13:33:48;97173.59;;;8.52;46.65
47330;BME280;33060;50.178;7.570;2023-03-02T13:36:27;97175.88;;;8.72;47.79
47330;BME280;33060;50.178;7.570;2023-03-02T13:38:56;97177.81;;;8.68;47.57
47330;BME280;33060;50.178;7.570;2023-03-02T13:41:29;97178.31;;;8.61;47.13
47330;BME280;33060;50.178;7.570;2023-03-02T13:43:57;97174.19;;;8.71;46.96
47330;BME280;33060;50.178;7.570;2023-03-02T13:46:32;97176.50;;;8.75;47.15
47330;BME280;33060;50.178;7.570;2023-03-02T13:49:03;97175.97;;;8.70;47.62
47330;BME280;33060;50.178;7.570;2023-03-02T13:51:39;97167.31;;;8.68;47.06
47330;BME280;33060;50.178;7.570;2023-03-02T13:54:26;97169.94;;;8.83;46.75
47330;BME280;33060;50.178;7.570;2023-03-02T13:56:56;97165.38;;;8.86;47.43
47330;BME280;33060;50.178;7.570;2023-03-02T13:59:24;97165.44;;;8.85;47.74
47330;BME280;33060;50.178;7.570;2023-03-02T14:01:50;97168.63;;;8.75;47.35
47330;BME280;33060;50.178;7.570;2023-03-02T14:04:19;97166.94;;;8.89;47.11
47330;BME280;33060;50.178;7.570;2023-03-02T14:06:50;97172.56;;;8.68;47.05
47330;BME280;33060;50.178;7.570;2023-03-02T14:09:17;97168.06;;;8.85;48.00
47330;BME280;33060;50.178;7.570;2023-03-02T14:11:50;97156.88;;;8.67;46.89
47330;BME280;33060;50.178;7.570;2023-03-02T14:14:20;97153.25;;;8.69;47.37